Campo Gallo, Argentina
Current Conditions -  °F | °C
As of 12:00 PM on Wednesday 26 Nov 2014 (Local Time) from SANT Reporting Station
Drizzle Drizzle  
Wind Chill: 21°   Ceiling: 3500
Heat Index: 21°   Visibility: 2.5mi
Dew Point: 19°   Wind: 2mph
Humidity: 88%   Direction: 180°S
Pressure: 30.03"   Gusts: NA
Location:  26.58°S, 62.85°W
Report Text: SANT 261500Z 18002KT 4000 -DZ BR SCT009 BKN035 21/19 Q1017
Loading
Personal Weather Stations






























Interactive Weather Map New forecast layout! Learn more

10-Day Weather Forecast

Advertisements
Track Severe Weather on mobile